createdAt,value
2023-03-30T00:00:43.198Z,5.27
2023-03-30T00:03:10.342Z,5.47
2023-03-30T00:05:38.128Z,5.13
2023-03-30T00:08:04.537Z,5.00
2023-03-30T00:10:31.192Z,4.83
2023-03-30T00:12:57.977Z,4.83
2023-03-30T00:15:24.631Z,5.07
2023-03-30T00:17:55.020Z,5.33
2023-03-30T00:20:22.042Z,5.40
2023-03-30T00:22:48.385Z,5.10
2023-03-30T00:25:16.669Z,5.57
2023-03-30T00:27:43.164Z,5.37
2023-03-30T00:30:18.070Z,5.53
2023-03-30T00:32:45.502Z,5.00
2023-03-30T00:35:12.383Z,5.40
2023-03-30T00:37:39.072Z,5.00
2023-03-30T00:40:08.052Z,5.17
2023-03-30T00:42:35.616Z,5.30
2023-03-30T00:45:17.829Z,5.53
2023-03-30T00:47:49.994Z,5.60
2023-03-30T00:50:17.783Z,4.87
2023-03-30T00:52:45.229Z,5.00
2023-03-30T00:55:12.629Z,5.00
2023-03-30T00:57:40.717Z,4.87
2023-03-30T01:00:08.793Z,5.40
2023-03-30T01:02:41.744Z,5.40
2023-03-30T01:05:08.908Z,5.90
2023-03-30T01:07:36.329Z,5.10
2023-03-30T01:10:02.620Z,5.63
2023-03-30T01:12:29.824Z,5.13
2023-03-30T01:14:56.587Z,5.23
2023-03-30T01:17:37.097Z,5.60
2023-03-30T01:20:22.429Z,5.60
2023-03-30T01:23:08.629Z,5.53
2023-03-30T01:25:43.480Z,5.50
2023-03-30T01:28:15.645Z,5.77
2023-03-30T01:30:52.758Z,6.10
2023-03-30T01:33:31.416Z,5.50
2023-03-30T01:36:17.860Z,5.77
2023-03-30T01:39:03.099Z,6.03
2023-03-30T01:41:34.035Z,5.63
2023-03-30T01:44:00.268Z,5.57
2023-03-30T01:46:32.602Z,6.60
2023-03-30T01:49:01.939Z,6.63
2023-03-30T01:51:34.057Z,6.50
2023-03-30T01:54:05.041Z,7.10
2023-03-30T01:56:40.569Z,6.87
2023-03-30T01:59:09.882Z,6.50
2023-03-30T02:01:37.985Z,7.20
2023-03-30T02:04:06.030Z,6.87
2023-03-30T02:06:38.832Z,6.60
2023-03-30T02:09:07.640Z,6.07
2023-03-30T02:11:35.663Z,6.70
2023-03-30T02:14:03.375Z,6.20
2023-03-30T02:16:38.194Z,6.23
2023-03-30T02:19:06.465Z,6.80
2023-03-30T02:21:32.919Z,6.17
2023-03-30T02:24:00.665Z,6.40
2023-03-30T02:26:27.352Z,6.00
2023-03-30T02:28:53.691Z,6.07
2023-03-30T02:31:20.100Z,6.40
2023-03-30T02:34:05.480Z,5.67
2023-03-30T02:36:37.503Z,6.53
2023-03-30T02:39:21.133Z,5.97
2023-03-30T02:42:06.175Z,6.30
2023-03-30T02:44:40.997Z,6.13
2023-03-30T02:47:12.185Z,6.27
2023-03-30T02:49:44.250Z,6.80
2023-03-30T02:52:22.452Z,6.60
2023-03-30T02:55:04.680Z,7.00
2023-03-30T02:57:36.075Z,6.13
2023-03-30T03:00:02.372Z,6.30
2023-03-30T03:02:35.271Z,6.73
2023-03-30T03:05:04.066Z,6.93
2023-03-30T03:07:33.829Z,6.63
2023-03-30T03:10:00.691Z,6.30
2023-03-30T03:12:28.791Z,6.90
2023-03-30T03:14:55.053Z,7.03
2023-03-30T03:17:22.489Z,6.93
2023-03-30T03:19:49.331Z,6.70
2023-03-30T03:22:15.984Z,6.27
2023-03-30T03:24:42.230Z,6.17
2023-03-30T03:27:08.754Z,6.10
2023-03-30T03:29:35.079Z,6.10
2023-03-30T03:32:01.348Z,6.77
2023-03-30T03:34:31.210Z,6.63
2023-03-30T03:36:58.036Z,6.10
2023-03-30T03:39:24.257Z,5.63
2023-03-30T03:41:50.549Z,6.60
2023-03-30T03:44:16.787Z,5.63
2023-03-30T03:46:43.057Z,6.20
2023-03-30T03:49:09.721Z,6.50
2023-03-30T03:51:35.981Z,6.53
2023-03-30T03:54:02.258Z,6.70
2023-03-30T03:56:28.474Z,6.77
2023-03-30T03:58:54.889Z,7.00
2023-03-30T04:01:21.332Z,6.77
2023-03-30T04:03:47.682Z,7.03
2023-03-30T04:06:14.008Z,7.30
2023-03-30T04:08:40.256Z,7.17
2023-03-30T04:11:08.005Z,6.83
2023-03-30T04:13:34.773Z,7.30
2023-03-30T04:16:01.224Z,7.07
2023-03-30T04:18:33.393Z,7.73
2023-03-30T04:21:02.965Z,7.90
2023-03-30T04:23:34.137Z,7.20
2023-03-30T04:26:01.761Z,7.17
2023-03-30T04:28:29.809Z,7.50
2023-03-30T04:31:00.115Z,7.77
2023-03-30T04:33:26.738Z,7.50
2023-03-30T04:35:53.072Z,7.13
2023-03-30T04:38:22.580Z,7.00
2023-03-30T04:40:50.123Z,7.23
2023-03-30T04:43:19.956Z,7.50
2023-03-30T04:45:50.812Z,7.27
2023-03-30T04:48:17.375Z,7.40
2023-03-30T04:50:45.059Z,7.60
2023-03-30T04:53:11.466Z,7.27
2023-03-30T04:55:37.731Z,6.80
2023-03-30T04:58:04.027Z,6.77
2023-03-30T05:00:30.374Z,7.30
2023-03-30T05:02:56.681Z,7.43
2023-03-30T05:05:23.045Z,7.53
2023-03-30T05:07:49.410Z,7.23
2023-03-30T05:10:16.015Z,6.57
2023-03-30T05:12:42.261Z,7.60
2023-03-30T05:15:08.699Z,7.13
2023-03-30T05:17:35.109Z,7.93
2023-03-30T05:20:02.155Z,7.07
2023-03-30T05:22:28.406Z,7.40
2023-03-30T05:24:54.685Z,6.90
2023-03-30T05:27:21.098Z,7.33
2023-03-30T05:29:47.364Z,8.03
2023-03-30T05:32:13.595Z,7.87
2023-03-30T05:34:39.826Z,7.10
2023-03-30T05:37:06.226Z,7.27
2023-03-30T05:39:32.651Z,7.37
2023-03-30T05:41:59.075Z,7.30
2023-03-30T05:44:25.855Z,6.70
2023-03-30T05:46:52.164Z,6.90
2023-03-30T05:49:18.541Z,6.67
2023-03-30T05:51:44.877Z,7.40
2023-03-30T05:54:12.203Z,6.87
2023-03-30T05:56:38.902Z,6.30
2023-03-30T05:59:05.217Z,6.60
2023-03-30T06:01:31.597Z,6.80
2023-03-30T06:03:58.090Z,6.80
2023-03-30T06:06:24.492Z,6.63
2023-03-30T06:08:51.268Z,6.13
2023-03-30T06:11:17.535Z,6.70
2023-03-30T06:13:43.768Z,5.90
2023-03-30T06:16:10.028Z,6.77
2023-03-30T06:18:36.282Z,6.20
2023-03-30T06:21:06.909Z,6.43
2023-03-30T06:23:34.015Z,6.30
2023-03-30T06:26:00.982Z,6.23
2023-03-30T06:28:27.530Z,6.07
2023-03-30T06:30:53.792Z,6.37
2023-03-30T06:33:20.072Z,6.43
2023-03-30T06:35:49.921Z,6.70
2023-03-30T06:38:17.304Z,5.97
2023-03-30T06:40:43.583Z,5.83
2023-03-30T06:43:14.916Z,6.10
2023-03-30T06:45:41.320Z,6.30
2023-03-30T06:48:07.818Z,6.00
2023-03-30T06:50:34.444Z,6.60
2023-03-30T06:53:00.747Z,6.30
2023-03-30T06:55:27.053Z,6.10
2023-03-30T06:57:53.428Z,6.03
2023-03-30T07:00:20.030Z,6.27
2023-03-30T07:02:46.291Z,6.13
2023-03-30T07:05:15.666Z,5.80
2023-03-30T07:07:41.997Z,5.87
2023-03-30T07:10:11.445Z,6.40
2023-03-30T07:12:37.885Z,5.70
2023-03-30T07:15:04.849Z,6.00
2023-03-30T07:17:31.514Z,5.43
2023-03-30T07:19:57.867Z,5.77
2023-03-30T07:22:24.204Z,5.20
2023-03-30T07:24:50.704Z,4.90
2023-03-30T07:27:17.474Z,4.73
2023-03-30T07:29:43.774Z,5.53
2023-03-30T07:32:10.244Z,4.83
2023-03-30T07:34:36.524Z,4.53
2023-03-30T07:37:02.778Z,4.90
2023-03-30T07:39:29.747Z,4.40
2023-03-30T07:41:57.359Z,4.20
2023-03-30T07:44:29.072Z,4.30
2023-03-30T07:46:55.724Z,4.53
2023-03-30T07:49:22.017Z,4.50
2023-03-30T07:51:48.305Z,4.00
2023-03-30T07:54:14.875Z,4.37
2023-03-30T07:56:42.788Z,4.37
2023-03-30T07:59:10.296Z,4.00
2023-03-30T08:01:36.556Z,3.90
2023-03-30T08:04:02.988Z,3.73
2023-03-30T08:06:29.620Z,3.57
2023-03-30T08:08:56.215Z,3.90
2023-03-30T08:11:22.503Z,3.90
2023-03-30T08:13:48.831Z,3.57
2023-03-30T08:16:15.146Z,3.63
2023-03-30T08:18:41.531Z,3.67
2023-03-30T08:21:07.850Z,3.03
2023-03-30T08:23:34.387Z,3.23
2023-03-30T08:26:00.707Z,3.37
2023-03-30T08:28:27.357Z,2.97
2023-03-30T08:30:54.696Z,2.67
2023-03-30T08:33:21.085Z,2.60
2023-03-30T08:35:47.739Z,2.97
2023-03-30T08:38:17.464Z,2.90
2023-03-30T08:40:47.771Z,3.03
2023-03-30T08:43:25.415Z,2.70
2023-03-30T08:45:51.898Z,2.97
2023-03-30T08:48:26.143Z,2.80
2023-03-30T08:50:54.332Z,2.70
2023-03-30T08:53:20.718Z,2.83
2023-03-30T08:55:50.254Z,2.80
2023-03-30T08:58:39.903Z,2.80
2023-03-30T09:01:20.571Z,2.57
2023-03-30T09:03:55.916Z,2.63
2023-03-30T09:06:25.224Z,2.37
2023-03-30T09:08:52.562Z,2.47
2023-03-30T09:11:24.214Z,2.50
2023-03-30T09:13:51.021Z,2.20
2023-03-30T09:16:32.928Z,2.50
2023-03-30T09:19:01.546Z,2.10
2023-03-30T09:21:29.077Z,2.30
2023-03-30T09:24:00.264Z,2.67
2023-03-30T09:26:40.880Z,2.73
2023-03-30T09:29:13.836Z,2.27
2023-03-30T09:31:44.959Z,2.60
2023-03-30T09:34:21.140Z,2.50
2023-03-30T09:36:57.353Z,2.57
2023-03-30T09:39:25.408Z,2.77
2023-03-30T09:42:11.392Z,2.40
2023-03-30T09:44:41.728Z,2.30
2023-03-30T09:47:15.560Z,2.90
2023-03-30T09:49:42.025Z,2.60
2023-03-30T09:52:08.439Z,2.50
2023-03-30T09:54:36.846Z,2.73
2023-03-30T09:57:03.423Z,2.30
2023-03-30T09:59:31.537Z,2.50
2023-03-30T10:02:11.108Z,2.70
2023-03-30T10:04:57.913Z,2.33
2023-03-30T10:07:36.437Z,2.20
2023-03-30T10:10:13.492Z,2.60
2023-03-30T10:12:39.812Z,2.50
2023-03-30T10:15:06.571Z,2.50
2023-03-30T10:17:33.041Z,2.63
2023-03-30T10:20:18.204Z,2.90
2023-03-30T10:22:49.134Z,2.80
2023-03-30T10:25:18.413Z,2.60
2023-03-30T10:27:45.582Z,2.63
2023-03-30T10:30:12.624Z,2.60
2023-03-30T10:32:43.379Z,2.80
2023-03-30T10:35:10.202Z,2.40
2023-03-30T10:37:42.692Z,2.37
2023-03-30T10:40:27.174Z,2.60
2023-03-30T10:42:55.532Z,2.60
2023-03-30T10:45:42.865Z,2.50
2023-03-30T10:48:21.661Z,2.97
2023-03-30T10:50:57.595Z,2.00
2023-03-30T10:53:30.371Z,2.63
2023-03-30T10:56:07.296Z,2.30
2023-03-30T10:58:52.880Z,2.73
2023-03-30T11:01:25.567Z,2.30
2023-03-30T11:03:53.497Z,2.90
2023-03-30T11:06:26.166Z,2.40
2023-03-30T11:08:53.815Z,2.60
2023-03-30T11:11:22.594Z,2.93
2023-03-30T11:13:51.289Z,2.30
2023-03-30T11:16:27.474Z,2.67
2023-03-30T11:19:03.377Z,2.73
2023-03-30T11:21:51.135Z,2.90
2023-03-30T11:24:21.698Z,3.00
2023-03-30T11:26:47.957Z,3.00
2023-03-30T11:29:33.164Z,2.30
2023-03-30T11:32:18.306Z,2.63
2023-03-30T11:34:59.970Z,2.87
2023-03-30T11:37:42.476Z,2.57
2023-03-30T11:40:26.736Z,2.73
2023-03-30T11:42:53.762Z,3.13
2023-03-30T11:45:36.903Z,2.87
2023-03-30T11:48:22.164Z,2.67
2023-03-30T11:50:59.008Z,2.63
2023-03-30T11:53:35.197Z,2.60
2023-03-30T11:56:12.921Z,3.10
2023-03-30T11:58:44.357Z,2.77
2023-03-30T12:01:16.550Z,2.83
2023-03-30T12:03:44.710Z,2.60
2023-03-30T12:06:20.357Z,3.10
2023-03-30T12:08:55.719Z,2.80
2023-03-30T12:11:31.511Z,3.00
2023-03-30T12:13:58.238Z,3.50
2023-03-30T12:16:46.637Z,2.70
2023-03-30T12:19:13.228Z,3.10
2023-03-30T12:21:44.036Z,3.13
2023-03-30T12:24:19.594Z,2.77
2023-03-30T12:26:55.002Z,2.53
2023-03-30T12:30:01.943Z,2.70
2023-03-30T12:32:29.831Z,2.70
2023-03-30T12:34:59.186Z,2.60
2023-03-30T12:37:33.345Z,2.63
2023-03-30T12:40:06.195Z,2.63
2023-03-30T12:42:37.504Z,3.03
2023-03-30T12:45:16.522Z,2.83
2023-03-30T12:47:50.890Z,3.03
2023-03-30T12:50:37.155Z,2.50
2023-03-30T12:53:18.625Z,2.60
2023-03-30T12:55:48.610Z,2.27
2023-03-30T12:58:17.960Z,2.80
2023-03-30T13:01:03.243Z,2.40
2023-03-30T13:03:40.595Z,2.60
2023-03-30T13:06:12.865Z,2.40
2023-03-30T13:08:40.264Z,2.73
2023-03-30T13:11:07.626Z,2.40
2023-03-30T13:13:52.962Z,2.50
2023-03-30T13:16:38.126Z,2.70
2023-03-30T13:19:19.810Z,2.73
2023-03-30T13:21:54.961Z,3.03
2023-03-30T13:24:26.008Z,2.43
2023-03-30T13:26:53.994Z,2.50
2023-03-30T13:29:21.197Z,2.30
2023-03-30T13:31:53.795Z,2.70
2023-03-30T13:34:38.872Z,2.63
2023-03-30T13:37:23.112Z,2.60
2023-03-30T13:40:07.817Z,2.60
2023-03-30T13:42:43.308Z,2.70
2023-03-30T13:45:15.837Z,2.83
2023-03-30T13:53:39.955Z,2.10
2023-03-30T13:56:07.274Z,1.90
2023-03-30T13:58:33.914Z,1.83
2023-03-30T14:01:01.498Z,2.03
2023-03-30T14:03:32.643Z,1.90
2023-03-30T14:06:02.793Z,1.80
2023-03-30T14:08:34.559Z,1.83
2023-03-30T14:11:03.079Z,1.97
2023-03-30T14:13:29.488Z,1.93
2023-03-30T14:15:56.028Z,1.63
2023-03-30T14:18:23.736Z,2.10
2023-03-30T14:20:49.962Z,1.53
2023-03-30T14:23:23.296Z,1.87
2023-03-30T14:25:53.084Z,1.83
2023-03-30T14:28:20.160Z,2.03
2023-03-30T14:30:53.925Z,2.00
2023-03-30T14:33:20.486Z,1.60
2023-03-30T14:35:49.388Z,1.80
2023-03-30T14:38:23.883Z,2.10
2023-03-30T14:40:51.194Z,1.80
2023-03-30T14:43:22.038Z,2.17
2023-03-30T14:45:50.070Z,2.03
2023-03-30T14:48:30.726Z,1.80
2023-03-30T14:50:57.019Z,2.17
2023-03-30T14:53:25.040Z,1.90
2023-03-30T14:55:51.790Z,2.00
2023-03-30T14:58:18.273Z,1.90
2023-03-30T15:00:45.911Z,2.00
2023-03-30T15:03:22.732Z,1.90
2023-03-30T15:05:53.023Z,1.70
2023-03-30T15:08:21.268Z,1.87
2023-03-30T15:10:56.404Z,2.20
2023-03-30T15:13:41.686Z,2.20
2023-03-30T15:16:08.534Z,2.00
2023-03-30T15:18:36.399Z,2.10
2023-03-30T15:21:03.091Z,2.30
2023-03-30T15:23:33.511Z,2.70
2023-03-30T15:26:01.487Z,2.07
2023-03-30T15:28:30.616Z,2.33
2023-03-30T15:30:58.430Z,2.40
2023-03-30T15:33:33.914Z,2.40
2023-03-30T15:36:05.533Z,1.90
2023-03-30T15:38:34.141Z,2.10
2023-03-30T15:41:00.783Z,2.30
2023-03-30T15:43:29.490Z,2.13
2023-03-30T15:45:57.543Z,2.10
2023-03-30T15:48:43.314Z,2.17
2023-03-30T15:51:28.738Z,2.43
2023-03-30T15:53:55.763Z,2.23
2023-03-30T15:56:28.413Z,2.17
2023-03-30T15:58:54.790Z,2.20
2023-03-30T16:01:23.442Z,2.73
2023-03-30T16:03:53.139Z,2.57
2023-03-30T16:06:19.928Z,3.03
2023-03-30T16:08:46.315Z,3.20
2023-03-30T16:11:14.617Z,2.70
2023-03-30T16:13:42.154Z,2.60
2023-03-30T16:16:08.555Z,2.30
2023-03-30T16:18:34.860Z,2.20
2023-03-30T16:21:01.285Z,2.20
2023-03-30T16:23:27.532Z,2.40
2023-03-30T16:25:53.775Z,2.70
2023-03-30T16:28:20.039Z,2.70
2023-03-30T16:30:47.776Z,2.23
2023-03-30T16:33:14.105Z,2.27
2023-03-30T16:35:40.479Z,2.60
2023-03-30T16:38:06.904Z,2.50
2023-03-30T16:40:38.029Z,2.37
2023-03-30T16:43:04.826Z,2.50
2023-03-30T16:45:31.588Z,2.30
2023-03-30T16:47:58.271Z,2.43
2023-03-30T16:50:33.073Z,2.40
2023-03-30T16:52:59.356Z,2.23
2023-03-30T16:55:25.648Z,2.60
2023-03-30T16:57:52.018Z,2.50
2023-03-30T17:00:24.296Z,2.57
2023-03-30T17:02:50.613Z,2.67
2023-03-30T17:05:17.003Z,2.53
2023-03-30T17:07:43.306Z,2.87
2023-03-30T17:10:12.771Z,2.83
2023-03-30T17:12:39.030Z,2.60
2023-03-30T17:15:05.508Z,2.90
2023-03-30T17:17:31.757Z,2.50
2023-03-30T17:19:59.500Z,2.90
2023-03-30T17:22:26.354Z,2.63
2023-03-30T17:24:52.635Z,2.90
2023-03-30T17:27:18.958Z,3.20
2023-03-30T17:29:45.282Z,2.77
2023-03-30T17:32:12.273Z,3.20
2023-03-30T17:34:38.596Z,2.90
2023-03-30T17:37:04.858Z,3.13
2023-03-30T17:39:31.380Z,3.03
2023-03-30T17:42:00.037Z,3.00
2023-03-30T17:44:28.088Z,3.30
2023-03-30T17:46:54.484Z,3.67
2023-03-30T17:49:20.772Z,3.70
2023-03-30T17:51:47.190Z,3.30
2023-03-30T17:54:13.432Z,3.50
2023-03-30T17:56:39.770Z,3.57
2023-03-30T17:59:09.592Z,3.53
2023-03-30T18:01:36.332Z,3.83
2023-03-30T18:04:02.790Z,4.30
2023-03-30T18:06:29.142Z,3.67
2023-03-30T18:08:55.393Z,3.50
2023-03-30T18:11:22.444Z,3.90
2023-03-30T18:13:48.738Z,4.10
2023-03-30T18:16:17.864Z,3.90
2023-03-30T18:18:44.251Z,3.70
2023-03-30T18:21:11.042Z,4.13
2023-03-30T18:23:37.586Z,3.97
2023-03-30T18:26:08.576Z,4.23
2023-03-30T18:28:39.276Z,4.60
2023-03-30T18:31:06.001Z,4.10
2023-03-30T18:33:34.207Z,4.10
2023-03-30T18:36:05.634Z,4.50
2023-03-30T18:38:33.314Z,4.50
2023-03-30T18:41:00.822Z,4.30
2023-03-30T18:43:27.680Z,4.17
2023-03-30T18:45:54.499Z,3.97
2023-03-30T18:48:21.710Z,4.20
2023-03-30T18:50:49.279Z,4.40
2023-03-30T18:53:16.549Z,4.30
2023-03-30T18:55:47.107Z,3.80
2023-03-30T18:58:14.706Z,4.53
2023-03-30T19:00:41.045Z,3.93
2023-03-30T19:03:07.397Z,4.20
2023-03-30T19:05:34.440Z,5.03
2023-03-30T19:08:01.115Z,4.50
2023-03-30T19:10:29.833Z,4.50
2023-03-30T19:12:56.638Z,3.93
2023-03-30T19:15:27.612Z,3.97
2023-03-30T19:17:54.024Z,3.63
2023-03-30T19:20:22.004Z,3.70
2023-03-30T19:22:48.527Z,3.60
2023-03-30T19:25:15.505Z,2.50
2023-03-30T19:27:51.982Z,2.43
2023-03-30T19:30:28.097Z,3.00
2023-03-30T19:32:56.067Z,1.40
2023-03-30T19:35:23.340Z,0.87
2023-03-30T19:37:49.999Z,1.10
2023-03-30T19:40:16.919Z,1.10
2023-03-30T19:42:43.495Z,0.80
2023-03-30T19:45:20.904Z,1.00
2023-03-30T19:47:47.641Z,0.87
2023-03-30T19:50:16.710Z,0.80
2023-03-30T19:52:43.211Z,0.80
2023-03-30T19:55:10.301Z,0.80
2023-03-30T19:57:37.102Z,0.93
2023-03-30T20:00:16.200Z,1.20
2023-03-30T20:02:43.800Z,1.07
2023-03-30T20:05:10.364Z,0.90
2023-03-30T20:07:37.337Z,0.90
2023-03-30T20:10:04.542Z,0.77
2023-03-30T20:12:30.856Z,1.07
2023-03-30T20:14:58.844Z,0.80
2023-03-30T20:17:25.506Z,1.00
2023-03-30T20:19:54.542Z,1.20
2023-03-30T20:22:20.892Z,1.20
2023-03-30T20:24:47.806Z,0.90
2023-03-30T20:27:14.045Z,1.20
2023-03-30T20:29:40.599Z,1.30
2023-03-30T20:32:06.928Z,1.43
2023-03-30T20:34:33.660Z,1.20
2023-03-30T20:36:59.910Z,1.07
2023-03-30T20:39:29.226Z,1.10
2023-03-30T20:41:57.990Z,1.00
2023-03-30T20:44:29.926Z,1.40
2023-03-30T20:46:59.848Z,1.50
2023-03-30T20:49:26.116Z,1.43
2023-03-30T20:51:53.210Z,1.40
2023-03-30T20:54:19.862Z,1.30
2023-03-30T20:56:46.146Z,1.13
2023-03-30T20:59:12.438Z,1.10
2023-03-30T21:01:43.385Z,1.37
2023-03-30T21:04:09.713Z,1.40
2023-03-30T21:06:36.067Z,1.47
2023-03-30T21:09:03.966Z,1.20
2023-03-30T21:11:31.738Z,1.30
2023-03-30T21:13:58.024Z,1.30
2023-03-30T21:16:25.139Z,2.07
2023-03-30T21:18:51.504Z,1.40
2023-03-30T21:21:17.931Z,1.33
2023-03-30T21:23:44.895Z,1.30
2023-03-30T21:26:11.244Z,1.40
2023-03-30T21:28:37.583Z,1.87
2023-03-30T21:31:05.269Z,2.03
2023-03-30T21:33:31.638Z,2.13
2023-03-30T21:35:58.582Z,2.30
2023-03-30T21:38:25.556Z,1.80
2023-03-30T21:40:56.051Z,2.10
2023-03-30T21:43:22.326Z,2.33
2023-03-30T21:45:53.475Z,2.40
2023-03-30T21:48:19.767Z,2.10
2023-03-30T21:50:46.022Z,2.40
2023-03-30T21:53:12.402Z,2.37
2023-03-30T21:55:38.653Z,2.27
2023-03-30T21:58:04.878Z,2.47
2023-03-30T22:00:31.256Z,2.13
2023-03-30T22:02:57.663Z,2.50
2023-03-30T22:05:23.993Z,2.50
2023-03-30T22:07:50.234Z,3.07
2023-03-30T22:10:16.626Z,2.37
2023-03-30T22:12:42.860Z,2.03
2023-03-30T22:15:09.241Z,2.10
2023-03-30T22:17:41.432Z,2.40
2023-03-30T22:20:10.055Z,2.57
2023-03-30T22:22:36.397Z,2.30
2023-03-30T22:25:02.686Z,2.20
2023-03-30T22:27:29.025Z,2.47
2023-03-30T22:29:55.426Z,2.60
2023-03-30T22:32:21.888Z,2.83
2023-03-30T22:34:48.185Z,2.40
2023-03-30T22:37:14.445Z,2.40
2023-03-30T22:39:40.787Z,2.10
2023-03-30T22:42:07.152Z,2.40
2023-03-30T22:44:33.461Z,2.53
2023-03-30T22:46:59.731Z,2.77
2023-03-30T22:49:26.050Z,2.67
2023-03-30T22:51:53.246Z,2.30
2023-03-30T22:54:19.831Z,2.67
2023-03-30T22:56:46.342Z,2.53
2023-03-30T22:59:12.683Z,2.70
2023-03-30T23:01:39.866Z,2.60
2023-03-30T23:04:06.808Z,2.17
2023-03-30T23:06:34.319Z,2.40
2023-03-30T23:09:02.494Z,2.40
2023-03-30T23:11:33.385Z,3.00
2023-03-30T23:14:05.048Z,2.70
2023-03-30T23:16:34.165Z,2.67
2023-03-30T23:19:01.310Z,2.60
2023-03-30T23:21:34.056Z,2.70
2023-03-30T23:24:01.949Z,2.40
2023-03-30T23:26:28.343Z,2.60
2023-03-30T23:28:54.837Z,2.33
2023-03-30T23:31:22.107Z,2.10
2023-03-30T23:33:48.459Z,2.77
2023-03-30T23:36:16.939Z,2.30
2023-03-30T23:38:43.685Z,2.80
2023-03-30T23:41:12.559Z,2.57
2023-03-30T23:43:38.796Z,2.60
2023-03-30T23:46:05.399Z,2.60
2023-03-30T23:48:32.066Z,2.10
2023-03-30T23:50:58.391Z,2.37
2023-03-30T23:53:26.238Z,2.30
2023-03-30T23:55:52.804Z,2.40
2023-03-30T23:58:19.111Z,2.13
